Time;durP1;ratioP1;P1;durP2;ratioP2;P2;SDS_P1;SDS_P2;PMS_P1;PMS_P2;Temp;Humidity;BMP_temperature;BMP_pressure;BME280_temperature;BME280_humidity;BME280_pressure;Samples;Min_cycle;Max_cycle;Signal;HPM_P1;HPM_P2
2022/04/20 00:01:19;;;;;;;;;33.00;31.67;;;;;10.86;100.00;100842.63;5915917;24;44682;-88
2022/04/20 00:07:09;;;;;;;;;36.00;27.33;;;;;10.82;100.00;100836.66;5979743;23;45097;-88
2022/04/20 00:09:51;;;;;;;;;36.00;32.67;;;;;10.77;100.00;100838.75;6025700;23;45177;-87
2022/04/20 00:13:04;;;;;;;;;34.00;32.00;;;;;10.78;100.00;100835.16;6052645;23;44755;-89
2022/04/20 00:15:43;;;;;;;;;35.67;32.33;;;;;10.78;100.00;100840.50;6064670;23;44805;-89
2022/04/20 00:18:16;;;;;;;;;34.33;29.33;;;;;10.72;100.00;100827.59;6083161;23;44886;-89
2022/04/20 00:21:04;;;;;;;;;38.67;34.00;;;;;10.70;100.00;100828.66;6077793;23;45561;-88
2022/04/20 00:27:19;;;;;;;;;38.33;33.67;;;;;10.58;100.00;100826.78;6075148;23;44885;-89
2022/04/20 00:30:17;;;;;;;;;46.33;36.00;;;;;10.49;100.00;100829.13;6072581;23;44864;-89
2022/04/20 00:33:36;;;;;;;;;42.33;35.00;;;;;10.52;100.00;100830.69;6015745;23;45195;-87
2022/04/20 00:36:23;;;;;;;;;41.00;34.33;;;;;10.45;100.00;100826.75;6042175;23;45261;-87
2022/04/20 00:39:10;;;;;;;;;34.00;27.33;;;;;10.46;100.00;100825.81;6017217;23;44699;-89
2022/04/20 00:41:54;;;;;;;;;51.67;41.33;;;;;10.44;100.00;100823.25;6013417;23;44825;-89
2022/04/20 00:47:39;;;;;;;;;43.00;36.67;;;;;10.49;100.00;100822.91;6038443;23;45245;-88
2022/04/20 00:50:26;;;;;;;;;40.00;35.33;;;;;10.48;100.00;100816.75;6012969;23;44751;-87
2022/04/20 00:53:06;;;;;;;;;47.67;38.33;;;;;10.44;100.00;100819.72;6039807;23;45639;-88
2022/04/20 00:55:38;;;;;;;;;31.67;31.00;;;;;10.42;100.00;100819.81;6045988;23;45209;-88
2022/04/20 00:58:04;;;;;;;;;50.33;41.00;;;;;10.40;100.00;100828.84;6047428;23;44785;-88
2022/04/20 01:00:45;;;;;;;;;46.33;38.67;;;;;10.37;100.00;100813.13;6048480;23;44900;-90
2022/04/20 01:03:17;;;;;;;;;43.67;34.00;;;;;10.35;100.00;100810.56;6083868;23;44907;-90
2022/04/20 01:05:59;;;;;;;;;44.67;35.33;;;;;10.34;100.00;100810.66;6192339;23;45420;-89
2022/04/20 01:08:37;;;;;;;;;42.33;33.67;;;;;10.30;100.00;100820.63;6166799;23;44752;-90
2022/04/20 01:11:41;;;;;;;;;50.00;42.00;;;;;10.28;100.00;100815.41;6170871;23;45208;-87
2022/04/20 01:16:54;;;;;;;;;48.00;40.00;;;;;10.26;100.00;100814.66;5980551;23;44959;-89
2022/04/20 01:23:12;;;;;;;;;55.67;40.67;;;;;10.22;100.00;100810.47;5929701;23;44729;-88
2022/04/20 01:26:46;;;;;;;;;51.33;41.00;;;;;10.13;100.00;100807.53;5955658;23;45287;-89
2022/04/20 01:30:04;;;;;;;;;51.00;42.33;;;;;10.10;100.00;100803.28;5900236;24;46895;-86
2022/04/20 01:37:23;;;;;;;;;55.33;44.00;;;;;10.10;100.00;100802.41;5862101;24;44734;-86
2022/04/20 01:40:34;;;;;;;;;53.67;42.67;;;;;10.03;100.00;100812.59;5729354;24;44820;-86
2022/04/20 01:46:25;;;;;;;;;50.67;41.33;;;;;9.97;100.00;100819.16;5695938;25;44885;-87
2022/04/20 01:56:26;;;;;;;;;54.33;41.33;;;;;9.96;100.00;100817.44;5695848;25;44968;-87
2022/04/20 02:02:37;;;;;;;;;59.33;45.00;;;;;9.96;100.00;100809.47;5707027;24;44855;-87
2022/04/20 02:12:52;;;;;;;;;63.33;47.33;;;;;9.93;100.00;100812.31;5582240;25;44672;-87
2022/04/20 02:15:28;;;;;;;;;57.67;46.00;;;;;9.88;100.00;100806.44;5597473;25;44874;-88
2022/04/20 02:18:30;;;;;;;;;56.00;45.00;;;;;9.83;100.00;100797.94;5556047;25;44849;-89
2022/04/20 02:21:07;;;;;;;;;54.67;41.33;;;;;9.77;100.00;100798.31;5595476;25;45018;-88
2022/04/20 02:27:02;;;;;;;;;64.00;46.33;;;;;9.81;100.00;100793.66;5658438;25;45382;-89
2022/04/20 02:30:20;;;;;;;;;39.33;36.00;;;;;9.75;100.00;100786.94;5696991;25;44724;-89
2022/04/20 02:33:42;;;;;;;;;54.67;45.33;;;;;9.77;100.00;100783.25;5681312;25;45211;-89
2022/04/20 02:36:47;;;;;;;;;56.33;47.00;;;;;9.75;100.00;100778.97;5725207;24;44548;-88
2022/04/20 02:39:14;;;;;;;;;60.67;49.33;;;;;9.76;100.00;100770.91;5777337;24;44739;-88
2022/04/20 05:32:33;;;;;;;;;71.00;54.00;;;;;9.95;100.00;100790.97;6125650;23;45047;-91
2022/04/20 05:35:08;;;;;;;;;64.33;51.33;;;;;9.88;100.00;100793.19;6085746;23;45594;-89
2022/04/20 05:41:40;;;;;;;;;68.00;54.00;;;;;9.90;100.00;100799.22;6130457;23;45190;-89
2022/04/20 05:44:11;;;;;;;;;68.67;53.33;;;;;9.95;100.00;100797.13;6106010;23;44872;-91
2022/04/20 05:46:38;;;;;;;;;64.67;49.67;;;;;10.00;100.00;100789.72;6223892;22;45116;-92
2022/04/20 05:49:04;;;;;;;;;65.67;51.33;;;;;10.14;100.00;100798.63;6223834;22;44785;-90
2022/04/20 05:51:31;;;;;;;;;67.33;52.33;;;;;10.21;100.00;100795.50;6232223;22;45351;-87
2022/04/20 05:53:58;;;;;;;;;65.67;49.00;;;;;10.36;100.00;100791.03;6206248;22;44872;-90
2022/04/20 05:56:29;;;;;;;;;69.67;53.00;;;;;10.41;100.00;100790.72;6237007;22;45163;-89
2022/04/20 05:59:00;;;;;;;;;62.67;49.33;;;;;10.51;100.00;100797.97;6235060;22;44545;-88
2022/04/20 06:01:26;;;;;;;;;67.33;53.00;;;;;10.56;100.00;100787.06;6207954;22;44773;-86
2022/04/20 06:03:56;;;;;;;;;63.00;49.00;;;;;10.61;100.00;100784.09;6231504;22;44742;-91
2022/04/20 06:06:22;;;;;;;;;61.00;49.00;;;;;10.67;100.00;100792.50;6203656;22;44933;-89
2022/04/20 06:08:47;;;;;;;;;65.33;52.00;;;;;10.66;100.00;100785.50;6227271;22;44748;-87
2022/04/20 06:11:18;;;;;;;;;68.67;52.67;;;;;10.75;100.00;100790.19;6176903;22;44719;-88
2022/04/20 06:13:47;;;;;;;;;65.67;51.33;;;;;10.70;100.00;100800.28;6230688;22;44633;-91
2022/04/20 06:16:13;;;;;;;;;65.00;52.00;;;;;10.65;100.00;100794.41;6200378;22;45381;-90
2022/04/20 06:18:38;;;;;;;;;66.33;52.00;;;;;10.63;100.00;100785.69;6198576;22;44827;-90
2022/04/20 06:21:05;;;;;;;;;62.33;50.67;;;;;10.65;100.00;100797.06;6181200;22;44899;-90
2022/04/20 06:23:32;;;;;;;;;65.33;51.33;;;;;10.73;100.00;100792.13;6235609;22;44751;-88
2022/04/20 06:25:58;;;;;;;;;69.67;54.00;;;;;10.76;100.00;100791.03;6210789;22;45294;-90
2022/04/20 06:28:25;;;;;;;;;64.67;49.00;;;;;10.74;100.00;100790.31;6204834;22;44865;-88
2022/04/20 06:30:51;;;;;;;;;66.33;52.33;;;;;10.77;100.00;100800.72;6225002;22;44646;-89
2022/04/20 06:33:17;;;;;;;;;71.33;57.00;;;;;10.78;100.00;100799.75;6196940;22;44846;-90
2022/04/20 06:35:46;;;;;;;;;64.00;51.67;;;;;10.82;100.00;100790.63;6196376;22;46618;-90
2022/04/20 06:38:12;;;;;;;;;60.67;50.00;;;;;10.82;100.00;100787.97;6198127;22;45222;-90
2022/04/20 06:40:38;;;;;;;;;63.67;49.33;;;;;10.85;100.00;100786.91;6199321;22;44812;-90
2022/04/20 06:43:12;;;;;;;;;70.00;53.67;;;;;10.88;100.00;100792.00;6200937;22;45086;-90
2022/04/20 06:45:38;;;;;;;;;66.33;50.33;;;;;10.90;100.00;100790.13;6198090;22;45153;-91
2022/04/20 06:48:13;;;;;;;;;65.00;50.67;;;;;11.03;100.00;100797.16;6198230;22;44635;-89
2022/04/20 06:50:41;;;;;;;;;63.33;50.33;;;;;11.19;100.00;100783.66;6229187;22;44769;-85
2022/04/20 06:58:42;;;;;;;;;68.00;53.00;;;;;11.34;100.00;100792.38;6224404;22;45240;-86
2022/04/20 07:01:08;;;;;;;;;69.33;52.67;;;;;11.51;100.00;100788.56;6195990;22;45377;-86
2022/04/20 07:03:37;;;;;;;;;66.67;51.33;;;;;11.66;100.00;100781.31;6222903;22;44779;-86
2022/04/20 07:06:04;;;;;;;;;65.33;50.67;;;;;11.69;100.00;100783.75;6197399;22;46888;-86
2022/04/20 07:08:31;;;;;;;;;63.67;51.00;;;;;11.82;100.00;100789.94;6197090;22;44757;-86
2022/04/20 07:10:57;;;;;;;;;70.33;55.33;;;;;11.95;100.00;100793.44;6222767;22;45256;-87
2022/04/20 07:13:22;;;;;;;;;62.33;49.67;;;;;12.13;100.00;100787.72;6196419;22;44901;-86
2022/04/20 07:15:48;;;;;;;;;61.33;50.00;;;;;12.33;100.00;100787.13;6220145;22;45311;-86
2022/04/20 07:18:14;;;;;;;;;60.00;46.33;;;;;12.60;100.00;100792.22;6192497;22;44748;-88
2022/04/20 07:20:40;;;;;;;;;54.00;39.67;;;;;12.85;100.00;100785.91;6192077;22;44807;-86
2022/04/20 07:23:06;;;;;;;;;57.33;45.33;;;;;13.03;100.00;100791.66;6194154;22;44972;-85
2022/04/20 07:25:32;;;;;;;;;62.67;51.00;;;;;13.15;100.00;100795.19;6218240;22;45117;-85
2022/04/20 07:27:58;;;;;;;;;66.67;52.00;;;;;13.09;100.00;100793.84;6216160;22;45298;-85
2022/04/20 07:30:25;;;;;;;;;60.67;47.67;;;;;13.09;100.00;100793.84;6219626;22;44686;-86
2022/04/20 07:32:50;;;;;;;;;65.33;51.00;;;;;13.25;100.00;100793.56;6219496;22;45106;-86
2022/04/20 07:35:16;;;;;;;;;62.00;47.00;;;;;13.38;100.00;100799.63;6189948;22;46019;-84
2022/04/20 07:37:42;;;;;;;;;56.33;46.00;;;;;13.43;100.00;100799.28;6216470;22;44707;-85
2022/04/20 07:40:08;;;;;;;;;64.33;51.00;;;;;13.50;100.00;100796.03;6216472;22;44791;-85
2022/04/20 07:42:35;;;;;;;;;64.67;49.33;;;;;13.50;100.00;100800.53;6217829;22;45195;-83
2022/04/20 07:45:01;;;;;;;;;54.33;46.00;;;;;13.69;100.00;100798.09;6189195;22;45535;-85
2022/04/20 07:47:28;;;;;;;;;56.67;46.00;;;;;13.79;100.00;100799.06;6213726;22;44757;-85
2022/04/20 07:52:40;;;;;;;;;50.00;43.33;;;;;14.13;100.00;100799.88;6215929;22;45390;-85
2022/04/20 07:55:10;;;;;;;;;51.00;41.33;;;;;14.38;100.00;100800.56;6165518;22;46700;-84
2022/04/20 07:57:36;;;;;;;;;48.33;39.67;;;;;14.46;100.00;100795.44;6218221;22;44778;-85
2022/04/20 08:00:06;;;;;;;;;51.67;41.00;;;;;14.51;100.00;100797.78;6219435;22;44719;-85
2022/04/20 08:02:31;;;;;;;;;48.67;41.00;;;;;14.47;100.00;100791.78;6191067;22;44815;-84
2022/04/20 08:04:57;;;;;;;;;53.67;42.33;;;;;14.38;100.00;100796.06;6189133;22;46429;-85
2022/04/20 08:07:26;;;;;;;;;46.00;37.00;;;;;14.53;100.00;100793.13;6190919;22;44774;-84
2022/04/20 08:09:52;;;;;;;;;42.33;35.00;;;;;14.40;100.00;100794.09;6195144;22;45469;-86
2022/04/20 08:12:18;;;;;;;;;38.33;36.67;;;;;14.66;100.00;100791.16;6225745;22;44732;-85
2022/04/20 08:14:43;;;;;;;;;40.67;34.33;;;;;14.92;100.00;100788.94;6193839;22;47003;-85
2022/04/20 08:17:09;;;;;;;;;45.33;35.33;;;;;15.21;100.00;100791.81;6215024;22;44795;-85
2022/04/20 08:19:35;;;;;;;;;32.00;28.33;;;;;15.21;100.00;100801.69;6213521;22;45465;-85
2022/04/20 08:22:00;;;;;;;;;42.00;33.00;;;;;15.20;100.00;100798.16;6187940;22;45627;-84
2022/04/20 08:24:25;;;;;;;;;43.33;33.00;;;;;15.42;100.00;100783.75;6217415;22;45271;-85
2022/04/20 08:26:51;;;;;;;;;37.67;30.33;;;;;15.63;100.00;100797.13;6216900;22;44695;-84
2022/04/20 08:29:17;;;;;;;;;39.00;33.00;;;;;15.71;100.00;100791.97;6216045;22;45108;-85
2022/04/20 08:31:42;;;;;;;;;34.67;29.67;;;;;15.72;100.00;100799.06;6189289;22;45504;-86
2022/04/20 08:34:07;;;;;;;;;36.67;33.67;;;;;15.63;100.00;100806.06;6214879;22;45173;-83
2022/04/20 08:36:33;;;;;;;;;33.33;32.67;;;;;15.81;100.00;100808.09;6212925;22;45168;-83
2022/04/20 08:39:00;;;;;;;;;29.67;29.00;;;;;15.85;100.00;100799.66;6214243;22;45293;-84
2022/04/20 08:41:26;;;;;;;;;26.50;25.00;;;;;15.90;100.00;100804.59;6218011;22;45343;-84
2022/04/20 08:43:52;;;;;;;;;29.50;24.50;;;;;15.94;100.00;100800.66;6227891;22;45209;-86
2022/04/20 08:46:24;;;;;;;;;29.25;27.50;;;;;16.07;100.00;100803.97;6201868;22;44685;-88
2022/04/20 08:48:53;;;;;;;;;23.00;21.00;;;;;16.37;100.00;100804.88;6201699;22;44591;-86
2022/04/20 08:51:19;;;;;;;;;24.00;22.00;;;;;16.65;100.00;100805.91;6180450;22;44788;-86
2022/04/20 08:53:47;;;;;;;;;24.00;22.25;;;;;16.97;100.00;100800.31;6203593;22;46866;-87
2022/04/20 08:59:01;;;;;;;;;13.75;13.50;;;;;17.45;100.00;100796.66;6223620;22;45406;-85
2022/04/20 09:01:30;;;;;;;;;19.00;19.00;;;;;17.44;98.70;100803.88;6193651;22;45260;-86
2022/04/20 09:04:02;;;;;;;;;24.75;21.75;;;;;17.34;100.00;100797.69;6190346;22;46488;-85
2022/04/20 09:06:28;;;;;;;;;24.75;23.25;;;;;17.56;100.00;100801.88;6192854;22;44741;-85
2022/04/20 09:08:54;;;;;;;;;20.25;15.50;;;;;17.65;96.71;100803.69;6195550;22;44774;-86
2022/04/20 09:11:21;;;;;;;;;24.25;23.25;;;;;17.69;100.00;100790.78;6195034;22;45343;-85
2022/04/20 09:13:47;;;;;;;;;29.25;23.75;;;;;17.79;98.50;100801.53;6195688;22;46870;-86
2022/04/20 09:16:13;;;;;;;;;24.75;22.25;;;;;17.91;97.84;100790.44;6197619;22;44717;-85
2022/04/20 09:18:42;;;;;;;;;17.00;17.00;;;;;18.09;98.02;100798.56;6196957;22;44710;-86
2022/04/20 09:21:15;;;;;;;;;25.50;20.50;;;;;17.98;98.08;100791.53;6189037;22;45633;-85
2022/04/20 09:23:46;;;;;;;;;25.50;24.50;;;;;17.94;96.96;100792.84;6189583;22;46130;-86
2022/04/20 09:26:15;;;;;;;;;25.75;20.75;;;;;18.05;100.00;100791.78;6191268;22;45285;-87
2022/04/20 09:29:05;;;;;;;;;29.75;24.00;;;;;17.90;96.69;100783.38;6201551;22;44802;-87
2022/04/20 09:32:17;;;;;;;;;;;;;;;;;;;;;
2022/04/20 09:35:34;;;;;;;;;23.00;23.00;;;;;17.64;95.50;100798.44;6213805;22;74112;-86
2022/04/20 09:42:16;;;;;;;;;;;;;;;;;;;;;
2022/04/20 09:45:46;;;;;;;;;26.25;25.25;;;;;17.55;98.64;100784.06;6120883;23;70044;-85
2022/04/20 09:53:32;;;;;;;;;21.50;21.50;;;;;17.94;96.17;100776.72;6226604;22;44778;-86
2022/04/20 09:56:14;;;;;;;;;32.75;30.50;;;;;17.79;100.00;100777.34;6202628;22;44773;-89
2022/04/20 09:58:40;;;;;;;;;26.50;21.75;;;;;17.70;100.00;100771.00;6227615;22;45340;-87
2022/04/20 10:04:57;;;;;;;;;14.75;14.00;;;;;17.80;98.02;100773.69;6017773;23;44932;-88
2022/04/20 10:07:26;;;;;;;;;24.25;22.25;;;;;17.84;97.72;100765.16;6017818;23;44767;-87
2022/04/20 10:13:33;;;;;;;;;28.25;22.50;;;;;18.27;95.54;100760.09;5996537;23;44822;-85
2022/04/20 10:16:09;;;;;;;;;23.60;21.00;;;;;18.26;97.16;100759.25;6017821;23;44760;-86
2022/04/20 10:18:39;;;;;;;;;18.75;17.50;;;;;18.20;100.00;100758.00;5995871;23;44882;-87
2022/04/20 10:21:11;;;;;;;;;16.00;14.25;;;;;18.15;99.41;100752.25;5994361;23;47075;-86
2022/04/20 10:23:49;;;;;;;;;22.75;18.25;;;;;18.32;100.00;100749.72;5997279;23;45234;-87
2022/04/20 10:26:21;;;;;;;;;26.75;22.75;;;;;18.52;99.88;100745.91;6001553;23;45301;-89
2022/04/20 10:29:19;;;;;;;;;17.75;16.25;;;;;18.57;100.00;100748.97;5969507;23;44793;-89
2022/04/20 10:31:58;;;;;;;;;19.75;17.50;;;;;18.68;98.20;100737.13;5987588;23;45312;-89
2022/04/20 10:34:25;;;;;;;;;10.40;10.40;;;;;18.69;93.38;100753.13;5987260;23;45421;-88
2022/04/20 10:37:05;;;;;;;;;17.20;17.20;;;;;18.72;94.46;100750.16;6012172;23;45252;-87
2022/04/20 10:39:41;;;;;;;;;14.00;13.50;;;;;18.88;93.07;100744.03;6094190;23;45213;-88
2022/04/20 10:42:11;;;;;;;;;18.75;18.75;;;;;19.06;92.37;100738.63;6194149;22;45197;-86
2022/04/20 10:45:05;;;;;;;;;12.80;12.20;;;;;19.17;93.12;100734.84;6222654;22;44670;-89
2022/04/20 10:47:58;;;;;;;;;9.80;9.80;;;;;19.22;89.35;100730.66;6226604;22;44729;-89
2022/04/20 10:50:28;;;;;;;;;10.50;9.25;;;;;19.40;86.41;100738.69;6136765;23;44756;-90
2022/04/20 10:55:32;;;;;;;;;16.00;12.20;;;;;19.61;84.91;100722.13;6167886;23;44802;-90
2022/04/20 10:58:19;;;;;;;;;11.40;10.20;;;;;19.67;88.36;100710.69;6141232;23;44795;-88
2022/04/20 11:00:44;;;;;;;;;6.50;6.50;;;;;19.60;81.82;100719.59;6140055;23;44946;-88
2022/04/20 11:03:12;;;;;;;;;11.25;10.00;;;;;19.55;83.96;100720.06;6144230;23;46617;-89
2022/04/20 11:05:55;;;;;;;;;9.80;8.40;;;;;19.60;86.28;100701.59;6166027;23;44658;-88
2022/04/20 11:08:25;;;;;;;;;11.00;8.80;;;;;19.56;85.73;100694.78;6160674;23;44763;-90
2022/04/20 11:19:52;;;;;;;;;10.80;10.80;;;;;19.80;79.81;100704.03;6165288;23;45197;-86
2022/04/20 11:22:34;;;;;;;;;;;;;;;;;;;;;
2022/04/20 11:25:06;;;;;;;;;8.40;8.40;;;;;19.85;78.05;100705.22;6165271;23;74458;-88
2022/04/20 11:27:36;;;;;;;;;6.00;6.00;;;;;19.89;77.60;100700.34;6177037;22;44730;-90
2022/04/20 11:30:05;;;;;;;;;10.20;5.40;;;;;20.03;74.39;100697.84;6229379;22;44738;-88
2022/04/20 11:32:35;;;;;;;;;6.20;6.20;;;;;20.16;81.55;100688.41;6201036;22;44826;-88
2022/04/20 11:35:15;;;;;;;;;7.40;5.00;;;;;20.19;71.15;100698.88;6226784;22;45052;-87
2022/04/20 11:37:57;;;;;;;;;7.00;5.80;;;;;20.28;68.76;100698.72;6202620;22;44715;-87
2022/04/20 11:40:22;;;;;;;;;9.80;7.40;;;;;20.31;68.59;100697.56;6177645;22;44714;-86
2022/04/20 11:43:10;;;;;;;;;5.50;5.50;;;;;20.46;67.14;100695.06;6194215;22;44878;-88
2022/04/20 11:45:36;;;;;;;;;0.00;0.00;;;;;20.51;68.10;100700.81;6193187;22;45357;-87
2022/04/20 11:48:07;;;;;;;;;8.75;5.25;;;;;20.52;67.01;100681.75;6218678;22;45239;-86
2022/04/20 11:50:34;;;;;;;;;4.40;4.00;;;;;20.62;71.98;100686.97;6196794;22;44641;-90
2022/04/20 11:53:03;;;;;;;;;4.80;3.20;;;;;20.70;66.37;100683.44;6223007;22;44829;-89
2022/04/20 11:55:29;;;;;;;;;3.00;3.00;;;;;20.67;60.35;100675.69;6223519;22;45366;-89
2022/04/20 11:58:11;;;;;;;;;3.00;3.00;;;;;20.63;63.41;100693.22;6195827;22;44806;-90
2022/04/20 12:00:37;;;;;;;;;7.80;4.80;;;;;20.47;61.66;100684.13;6221682;22;44761;-88
2022/04/20 12:03:10;;;;;;;;;3.60;3.60;;;;;20.23;65.31;100695.69;6194181;22;44958;-88
2022/04/20 12:06:07;;;;;;;;;1.00;1.00;;;;;20.15;61.17;100687.56;6198119;22;45153;-87
2022/04/20 12:08:52;;;;;;;;;3.20;3.20;;;;;20.22;55.89;100690.47;6192346;22;44767;-87
2022/04/20 12:11:18;;;;;;;;;8.60;5.60;;;;;20.24;57.32;100697.38;6179676;22;44891;-86
2022/04/20 12:13:59;;;;;;;;;0.80;0.80;;;;;20.10;54.08;100681.84;6232736;22;44714;-87
2022/04/20 12:16:28;;;;;;;;;3.00;3.00;;;;;20.13;55.58;100683.38;6205429;22;45075;-88
2022/04/20 12:18:55;;;;;;;;;7.60;3.80;;;;;20.18;54.21;100689.97;6205309;22;44710;-88
2022/04/20 12:21:41;;;;;;;;;5.60;5.60;;;;;20.32;56.86;100690.31;6203925;22;45253;-87
2022/04/20 12:24:19;;;;;;;;;4.80;4.20;;;;;20.52;54.00;100684.44;6229905;22;44794;-87
2022/04/20 12:26:46;;;;;;;;;4.00;4.00;;;;;20.68;55.80;100677.34;6200805;22;47007;-87
2022/04/20 12:29:14;;;;;;;;;3.80;3.40;;;;;20.95;57.85;100686.94;6227119;22;44754;-89
2022/04/20 12:32:27;;;;;;;;;13.20;9.40;;;;;20.81;47.20;100691.19;6199755;22;44898;-90
2022/04/20 12:34:54;;;;;;;;;9.80;6.80;;;;;20.94;46.17;100677.16;6225752;22;45333;-88
2022/04/20 12:37:30;;;;;;;;;5.00;3.00;;;;;20.86;47.75;100679.88;6196343;22;45147;-87
2022/04/20 12:39:59;;;;;;;;;3.40;3.20;;;;;21.05;47.48;100680.34;6222448;22;45249;-90
2022/04/20 12:42:26;;;;;;;;;4.00;4.00;;;;;21.36;46.71;100681.47;6216889;22;45478;-87
2022/04/20 12:44:54;;;;;;;;;11.50;8.75;;;;;21.43;46.62;100683.31;6190911;22;45438;-89
2022/04/20 12:47:21;;;;;;;;;9.20;5.00;;;;;21.16;41.44;100684.53;6216987;22;45165;-87
2022/04/20 12:50:03;;;;;;;;;2.00;2.00;;;;;21.05;43.89;100677.63;6218687;22;44730;-90
2022/04/20 12:52:38;;;;;;;;;2.80;2.80;;;;;21.17;43.18;100680.81;6221321;22;44675;-89
2022/04/20 12:55:09;;;;;;;;;3.00;3.00;;;;;21.09;39.82;100693.50;6223011;22;44915;-88
2022/04/20 13:03:27;;;;;;;;;16.00;12.60;;;;;21.11;39.94;100694.19;6221010;22;44759;-87
2022/04/20 13:05:52;;;;;;;;;4.80;4.00;;;;;21.08;38.55;100681.88;6192263;22;44786;-88
2022/04/20 13:08:20;;;;;;;;;2.20;2.20;;;;;21.25;41.25;100677.25;6218245;22;45358;-87
2022/04/20 13:10:46;;;;;;;;;3.00;3.00;;;;;21.27;37.52;100686.00;6191860;22;44638;-89
2022/04/20 13:13:13;;;;;;;;;5.50;4.00;;;;;21.53;37.46;100688.50;6217166;22;44668;-85
2022/04/20 13:15:39;;;;;;;;;8.40;2.80;;;;;21.46;35.58;100682.09;6192017;22;45181;-86
2022/04/20 13:18:11;;;;;;;;;4.40;2.20;;;;;21.20;38.80;100680.47;6190427;22;45436;-88
2022/04/20 13:20:36;;;;;;;;;7.40;5.80;;;;;20.95;37.88;100678.84;6215004;22;44694;-86
2022/04/20 13:23:06;;;;;;;;;2.75;2.75;;;;;20.71;37.20;100687.81;6219386;22;44766;-88
2022/04/20 13:28:16;;;;;;;;;1.80;1.60;;;;;20.53;40.25;100663.69;6229125;22;45374;-89
2022/04/20 13:30:41;;;;;;;;;0.25;0.25;;;;;20.59;42.05;100670.28;6227608;22;44746;-84
2022/04/20 13:33:11;;;;;;;;;3.50;3.50;;;;;20.84;42.21;100669.25;6198421;22;45315;-85
2022/04/20 13:35:38;;;;;;;;;2.00;2.00;;;;;21.04;41.12;100677.81;6225993;22;44775;-89
2022/04/20 13:38:06;;;;;;;;;3.40;3.40;;;;;21.04;38.26;100665.16;6193301;22;46882;-89
2022/04/20 13:40:36;;;;;;;;;5.60;3.60;;;;;21.15;39.51;100672.03;6201075;22;44779;-87
2022/04/20 13:43:03;;;;;;;;;2.00;2.00;;;;;21.14;40.38;100670.38;6195779;22;44774;-90
2022/04/20 13:45:29;;;;;;;;;1.00;1.00;;;;;21.25;42.27;100651.06;6218579;22;45189;-86
2022/04/20 13:47:55;;;;;;;;;7.50;6.75;;;;;21.01;39.71;100667.34;6222161;22;44975;-89
2022/04/20 13:50:20;;;;;;;;;2.00;2.00;;;;;20.75;38.75;100668.41;6193682;22;44819;-88
2022/04/20 13:52:46;;;;;;;;;7.25;6.00;;;;;20.55;41.86;100672.50;6221212;22;44699;-87
2022/04/20 13:55:12;;;;;;;;;3.75;3.75;;;;;20.46;43.74;100668.06;6194280;22;44770;-88
2022/04/20 13:57:40;;;;;;;;;3.80;3.80;;;;;20.37;44.71;100669.91;6223341;22;45021;-88
2022/04/20 14:00:13;;;;;;;;;5.00;2.00;;;;;20.41;44.61;100667.72;6228854;22;45114;-86
2022/04/20 14:02:44;;;;;;;;;11.60;7.60;;;;;20.39;42.79;100659.78;6220828;22;45328;-89
2022/04/20 14:05:10;;;;;;;;;7.60;4.80;;;;;20.52;42.19;100670.94;6158014;22;44834;-89
2022/04/20 14:07:36;;;;;;;;;4.50;3.00;;;;;20.96;41.83;100675.13;6217258;22;45327;-86
2022/04/20 14:10:05;;;;;;;;;1.50;1.00;;;;;21.55;39.25;100673.78;6216947;22;45177;-87
2022/04/20 14:12:32;;;;;;;;;4.00;4.00;;;;;22.14;38.92;100672.47;6191431;22;45214;-89
2022/04/20 14:14:59;;;;;;;;;2.40;2.40;;;;;22.65;36.77;100668.19;6191194;22;45207;-88
2022/04/20 14:17:27;;;;;;;;;0.00;0.00;;;;;22.95;35.50;100693.50;6192125;22;45591;-87
2022/04/20 14:19:53;;;;;;;;;3.00;2.20;;;;;23.15;35.44;100676.69;6192000;22;45199;-90
2022/04/20 14:22:19;;;;;;;;;2.00;2.00;;;;;23.08;34.74;100666.59;6194880;22;45346;-85
2022/04/20 14:24:46;;;;;;;;;4.75;2.00;;;;;23.10;34.43;100669.13;6196926;22;45034;-88
2022/04/20 14:32:42;;;;;;;;;2.00;2.00;;;;;22.83;38.05;100654.31;6205559;22;45242;-90
2022/04/20 14:35:12;;;;;;;;;2.00;2.00;;;;;23.08;35.31;100668.47;6225918;22;44720;-86
2022/04/20 14:37:38;;;;;;;;;2.00;2.00;;;;;23.20;34.73;100664.25;6201165;22;45172;-87
2022/04/20 14:40:04;;;;;;;;;4.00;3.25;;;;;23.60;34.28;100656.69;6201005;22;44734;-87
2022/04/20 14:42:30;;;;;;;;;1.40;1.40;;;;;23.88;33.40;100659.53;6170471;22;44657;-88
2022/04/20 14:44:56;;;;;;;;;3.00;3.00;;;;;23.77;32.79;100657.31;6220390;22;44749;-86
2022/04/20 14:47:23;;;;;;;;;0.50;0.00;;;;;23.52;33.44;100652.19;6218603;22;45350;-84
2022/04/20 14:49:48;;;;;;;;;1.40;1.40;;;;;23.28;33.54;100634.34;6199662;22;44564;-88
2022/04/20 14:52:16;;;;;;;;;1.25;1.25;;;;;23.33;34.19;100650.91;6194583;22;45148;-88
2022/04/20 14:54:43;;;;;;;;;2.00;0.00;;;;;23.23;34.08;100652.22;6191594;22;44786;-88
2022/04/20 14:57:18;;;;;;;;;11.00;9.80;;;;;23.40;37.06;100650.97;6221928;22;45307;-86
2022/04/20 14:59:46;;;;;;;;;2.80;2.60;;;;;23.40;33.76;100650.13;6196929;22;44745;-86
2022/04/20 15:02:29;;;;;;;;;4.00;2.40;;;;;23.79;33.55;100652.56;6227372;22;44769;-87
2022/04/20 15:05:03;;;;;;;;;2.60;1.80;;;;;24.04;36.77;100648.44;6226327;22;44707;-86
2022/04/20 15:08:01;;;;;;;;;2.80;1.60;;;;;23.95;34.22;100646.06;6197975;22;45114;-89
2022/04/20 15:10:27;;;;;;;;;2.40;2.40;;;;;24.00;31.50;100647.16;6077523;23;44752;-91
2022/04/20 15:12:52;;;;;;;;;4.00;3.00;;;;;24.19;31.89;100647.56;6099007;23;44757;-85
2022/04/20 15:15:19;;;;;;;;;2.00;2.00;;;;;24.73;32.12;100650.56;6096314;23;44799;-87
2022/04/20 15:18:02;;;;;;;;;1.60;1.40;;;;;25.37;30.53;100646.81;6094406;23;45281;-87
2022/04/20 15:20:37;;;;;;;;;4.00;4.00;;;;;25.91;29.68;100634.25;6070910;23;44745;-87
2022/04/20 15:23:06;;;;;;;;;2.60;2.60;;;;;26.18;28.83;100638.72;6071846;23;44861;-85
2022/04/20 15:25:33;;;;;;;;;2.00;2.00;;;;;26.33;28.20;100643.97;6074395;23;44983;-87
2022/04/20 15:28:13;;;;;;;;;2.00;2.00;;;;;26.38;29.34;100633.28;6100471;23;45535;-85
2022/04/20 15:30:51;;;;;;;;;2.00;2.00;;;;;25.89;27.93;100637.19;6075737;23;44800;-86
2022/04/20 15:36:38;;;;;;;;;3.00;3.00;;;;;26.18;27.79;100633.28;6095021;23;44783;-86
2022/04/20 15:39:10;;;;;;;;;1.00;1.00;;;;;26.06;32.90;100626.75;6070169;23;46653;-84
2022/04/20 15:41:41;;;;;;;;;3.80;3.80;;;;;25.44;28.10;100625.09;6096435;23;44691;-85
2022/04/20 15:44:07;;;;;;;;;1.20;1.20;;;;;25.05;27.69;100649.13;6099701;23;44708;-86
2022/04/20 15:46:32;;;;;;;;;4.00;2.80;;;;;24.55;27.21;100629.31;6103489;22;45595;-86
2022/04/20 15:48:58;;;;;;;;;2.00;2.00;;;;;24.63;30.32;100627.50;6217441;22;45127;-83
2022/04/20 15:51:24;;;;;;;;;4.00;4.00;;;;;24.48;27.92;100628.41;6188287;22;45274;-84
2022/04/20 15:53:49;;;;;;;;;2.60;2.60;;;;;24.77;28.49;100626.56;6187924;22;44838;-83
2022/04/20 16:01:58;;;;;;;;;3.40;3.00;;;;;24.35;27.86;100634.53;6217648;22;45346;-86
2022/04/20 16:04:32;;;;;;;;;3.80;3.00;;;;;23.82;28.94;100625.03;6190010;22;45192;-86
2022/04/20 16:06:59;;;;;;;;;4.40;3.00;;;;;23.88;31.23;100621.53;6223837;22;44770;-85
2022/04/20 16:09:25;;;;;;;;;4.40;2.60;;;;;23.68;29.87;100634.03;6222184;22;45420;-87
2022/04/20 16:11:50;;;;;;;;;4.25;4.25;;;;;23.39;29.44;100624.06;6191645;22;44708;-84
2022/04/20 16:14:16;;;;;;;;;2.75;2.75;;;;;22.82;29.83;100620.97;6190275;22;44869;-83
2022/04/20 16:16:42;;;;;;;;;6.50;3.00;;;;;22.35;29.60;100623.13;6214547;22;44757;-84
2022/04/20 16:19:20;;;;;;;;;5.60;4.00;;;;;22.04;30.85;100627.53;6215372;22;45607;-83
2022/04/20 16:21:45;;;;;;;;;3.00;3.00;;;;;21.66;31.14;100623.91;6217095;22;45470;-86
2022/04/20 16:24:18;;;;;;;;;3.00;3.00;;;;;21.69;32.13;100626.22;6190064;22;45265;-84
2022/04/20 16:26:48;;;;;;;;;4.00;4.00;;;;;21.94;31.11;100626.91;6189127;22;45383;-84